sensor_id;sensor_type;location;lat;lon;timestamp;pressure;altitude;pressure_sealevel;temperature;humidity
5777;BME280;2914;42.668;23.346;2023-02-11T00:00:43;96150.74;;;-0.19;63.83
5777;BME280;2914;42.668;23.346;2023-02-11T00:03:12;96147.43;;;-0.07;63.47
5777;BME280;2914;42.668;23.346;2023-02-11T00:05:41;96152.58;;;-0.06;62.58
5777;BME280;2914;42.668;23.346;2023-02-11T00:08:10;96153.30;;;-0.17;62.82
5777;BME280;2914;42.668;23.346;2023-02-11T00:10:41;96149.75;;;-0.31;63.03
5777;BME280;2914;42.668;23.346;2023-02-11T00:13:12;96152.42;;;-0.34;63.16
5777;BME280;2914;42.668;23.346;2023-02-11T00:15:40;96147.57;;;-0.30;62.86
5777;BME280;2914;42.668;23.346;2023-02-11T00:18:09;96144.27;;;-0.37;62.74
5777;BME280;2914;42.668;23.346;2023-02-11T00:20:39;96156.98;;;-0.26;62.55
5777;BME280;2914;42.668;23.346;2023-02-11T00:23:08;96152.20;;;-0.25;62.39
5777;BME280;2914;42.668;23.346;2023-02-11T00:29:37;96144.19;;;-0.52;62.73
5777;BME280;2914;42.668;23.346;2023-02-11T00:34:42;96145.31;;;-0.26;62.12
5777;BME280;2914;42.668;23.346;2023-02-11T00:39:48;96142.05;;;-0.52;62.46
5777;BME280;2914;42.668;23.346;2023-02-11T00:49:49;96136.82;;;-0.50;62.62
5777;BME280;2914;42.668;23.346;2023-02-11T00:52:18;96135.23;;;-0.56;62.33
5777;BME280;2914;42.668;23.346;2023-02-11T00:57:23;96139.38;;;-0.49;61.89
5777;BME280;2914;42.668;23.346;2023-02-11T01:08:21;96134.38;;;-0.21;60.71
5777;BME280;2914;42.668;23.346;2023-02-11T01:10:55;96134.44;;;-0.24;60.16
5777;BME280;2914;42.668;23.346;2023-02-11T01:13:26;96129.13;;;-0.36;60.29
5777;BME280;2914;42.668;23.346;2023-02-11T01:15:56;96125.90;;;-0.27;60.11
5777;BME280;2914;42.668;23.346;2023-02-11T01:21:28;96126.16;;;-0.38;60.52
5777;BME280;2914;42.668;23.346;2023-02-11T01:23:57;96127.06;;;-0.77;61.57
5777;BME280;2914;42.668;23.346;2023-02-11T01:26:26;96128.20;;;-0.71;61.82
5777;BME280;2914;42.668;23.346;2023-02-11T01:28:56;96121.34;;;-0.73;61.82
5777;BME280;2914;42.668;23.346;2023-02-11T01:31:27;96127.36;;;-0.71;61.59
5777;BME280;2914;42.668;23.346;2023-02-11T01:33:57;96127.98;;;-0.79;61.57
5777;BME280;2914;42.668;23.346;2023-02-11T01:36:26;96123.42;;;-1.07;62.40
5777;BME280;2914;42.668;23.346;2023-02-11T01:39:04;96118.08;;;-0.81;62.55
5777;BME280;2914;42.668;23.346;2023-02-11T01:41:35;96121.90;;;-0.98;62.65
5777;BME280;2914;42.668;23.346;2023-02-11T01:44:27;96120.98;;;-1.15;62.91
5777;BME280;2914;42.668;23.346;2023-02-11T01:46:56;96119.65;;;-1.13;62.99
5777;BME280;2914;42.668;23.346;2023-02-11T01:49:28;96114.31;;;-1.27;63.18
5777;BME280;2914;42.668;23.346;2023-02-11T01:57:29;96119.45;;;-0.84;62.70
5777;BME280;2914;42.668;23.346;2023-02-11T02:00:05;96121.67;;;-0.87;62.17
5777;BME280;2914;42.668;23.346;2023-02-11T02:02:38;96110.34;;;-0.83;61.73
5777;BME280;2914;42.668;23.346;2023-02-11T02:05:18;96114.84;;;-0.91;61.77
5777;BME280;2914;42.668;23.346;2023-02-11T02:07:44;96110.47;;;-1.07;62.49
5777;BME280;2914;42.668;23.346;2023-02-11T02:13:04;96115.83;;;-0.77;61.97
5777;BME280;2914;42.668;23.346;2023-02-11T02:15:34;96112.44;;;-0.79;61.71
5777;BME280;2914;42.668;23.346;2023-02-11T02:18:16;96118.05;;;-0.80;61.54
5777;BME280;2914;42.668;23.346;2023-02-11T02:21:28;96112.70;;;-0.72;61.43
5777;BME280;2914;42.668;23.346;2023-02-11T02:24:13;96115.06;;;-0.81;61.59
5777;BME280;2914;42.668;23.346;2023-02-11T02:27:13;96112.80;;;-0.96;61.87
5777;BME280;2914;42.668;23.346;2023-02-11T02:30:18;96113.25;;;-0.97;62.08
5777;BME280;2914;42.668;23.346;2023-02-11T02:33:11;96106.47;;;-1.03;62.14
5777;BME280;2914;42.668;23.346;2023-02-11T02:35:45;96107.66;;;-0.98;62.11
5777;BME280;2914;42.668;23.346;2023-02-11T02:38:19;96111.04;;;-0.94;61.85
5777;BME280;2914;42.668;23.346;2023-02-11T02:40:50;96109.78;;;-0.96;61.43
5777;BME280;2914;42.668;23.346;2023-02-11T02:43:21;96106.77;;;-0.97;61.26
5777;BME280;2914;42.668;23.346;2023-02-11T02:45:51;96109.02;;;-1.01;61.56
5777;BME280;2914;42.668;23.346;2023-02-11T02:56:06;96105.41;;;-0.74;60.65
5777;BME280;2914;42.668;23.346;2023-02-11T02:59:02;96110.66;;;-0.97;60.92
5777;BME280;2914;42.668;23.346;2023-02-11T03:01:37;96108.75;;;-0.89;60.66
5777;BME280;2914;42.668;23.346;2023-02-11T03:04:10;96112.88;;;-0.99;60.71
5777;BME280;2914;42.668;23.346;2023-02-11T03:06:44;96112.45;;;-1.20;61.42
5777;BME280;2914;42.668;23.346;2023-02-11T03:09:17;96117.17;;;-1.18;61.34
5777;BME280;2914;42.668;23.346;2023-02-11T03:22:37;96115.95;;;-0.82;60.76
5777;BME280;2914;42.668;23.346;2023-02-11T03:25:07;96118.58;;;-1.03;60.63
5777;BME280;2914;42.668;23.346;2023-02-11T03:27:40;96119.05;;;-1.05;60.51
5777;BME280;2914;42.668;23.346;2023-02-11T03:30:12;96114.31;;;-1.06;60.89
5777;BME280;2914;42.668;23.346;2023-02-11T03:32:46;96114.62;;;-1.20;61.28
5777;BME280;2914;42.668;23.346;2023-02-11T03:35:18;96107.54;;;-1.11;61.09
5777;BME280;2914;42.668;23.346;2023-02-11T03:37:50;96106.85;;;-1.20;61.30
5777;BME280;2914;42.668;23.346;2023-02-11T03:40:22;96115.77;;;-1.13;61.27
5777;BME280;2914;42.668;23.346;2023-02-11T03:42:55;96109.71;;;-1.12;61.10
5777;BME280;2914;42.668;23.346;2023-02-11T03:45:25;96108.91;;;-1.16;61.11
5777;BME280;2914;42.668;23.346;2023-02-11T03:47:59;96111.05;;;-1.14;61.00
5777;BME280;2914;42.668;23.346;2023-02-11T03:50:28;96113.59;;;-1.12;60.91
5777;BME280;2914;42.668;23.346;2023-02-11T03:52:59;96108.23;;;-1.05;60.70
5777;BME280;2914;42.668;23.346;2023-02-11T03:55:30;96104.49;;;-1.11;60.77
5777;BME280;2914;42.668;23.346;2023-02-11T03:58:00;96099.77;;;-1.11;62.61
5777;BME280;2914;42.668;23.346;2023-02-11T04:00:34;96108.30;;;-1.08;61.48
5777;BME280;2914;42.668;23.346;2023-02-11T04:03:06;96111.73;;;-1.06;61.05
5777;BME280;2914;42.668;23.346;2023-02-11T04:05:36;96108.27;;;-1.06;60.92
5777;BME280;2914;42.668;23.346;2023-02-11T04:08:06;96109.06;;;-1.03;60.87
5777;BME280;2914;42.668;23.346;2023-02-11T04:13:26;96105.86;;;-0.94;60.59
5777;BME280;2914;42.668;23.346;2023-02-11T04:15:55;96108.83;;;-0.92;60.31
5777;BME280;2914;42.668;23.346;2023-02-11T04:18:24;96105.67;;;-1.06;60.37
5777;BME280;2914;42.668;23.346;2023-02-11T04:20:54;96113.56;;;-1.11;60.76
5777;BME280;2914;42.668;23.346;2023-02-11T04:23:23;96114.20;;;-1.21;60.80
5777;BME280;2914;42.668;23.346;2023-02-11T04:25:52;96110.28;;;-1.19;60.93
5777;BME280;2914;42.668;23.346;2023-02-11T04:28:21;96105.90;;;-1.15;61.05
5777;BME280;2914;42.668;23.346;2023-02-11T04:30:50;96108.22;;;-1.03;60.76
5777;BME280;2914;42.668;23.346;2023-02-11T04:33:19;96110.73;;;-1.00;60.30
5777;BME280;2914;42.668;23.346;2023-02-11T04:35:48;96107.27;;;-1.00;60.25
5777;BME280;2914;42.668;23.346;2023-02-11T04:38:17;96108.15;;;-1.00;60.40
5777;BME280;2914;42.668;23.346;2023-02-11T04:40:46;96100.75;;;-0.97;60.46
5777;BME280;2914;42.668;23.346;2023-02-11T04:43:15;96096.31;;;-1.12;60.51
5777;BME280;2914;42.668;23.346;2023-02-11T04:45:44;96088.66;;;-1.16;60.50
5777;BME280;2914;42.668;23.346;2023-02-11T04:48:13;96100.72;;;-1.15;60.74
5777;BME280;2914;42.668;23.346;2023-02-11T04:50:42;96101.22;;;-1.19;60.81
5777;BME280;2914;42.668;23.346;2023-02-11T04:53:11;96098.86;;;-1.10;61.00
5777;BME280;2914;42.668;23.346;2023-02-11T04:55:40;96094.09;;;-1.09;60.75
5777;BME280;2914;42.668;23.346;2023-02-11T04:59:16;96102.81;;;-0.94;60.63
5777;BME280;2914;42.668;23.346;2023-02-11T05:09:46;96090.09;;;-1.03;62.19
5777;BME280;2914;42.668;23.346;2023-02-11T05:12:16;96090.09;;;-1.05;61.62
5777;BME280;2914;42.668;23.346;2023-02-11T05:14:45;96086.67;;;-1.05;61.26
5777;BME280;2914;42.668;23.346;2023-02-11T05:20:00;96084.37;;;-1.39;62.87
5777;BME280;2914;42.668;23.346;2023-02-11T05:22:30;96081.28;;;-1.56;63.09
5777;BME280;2914;42.668;23.346;2023-02-11T05:24:59;96076.37;;;-1.49;63.01
5777;BME280;2914;42.668;23.346;2023-02-11T05:27:28;96084.14;;;-1.49;63.24
5777;BME280;2914;42.668;23.346;2023-02-11T05:29:57;96090.13;;;-1.45;63.26
5777;BME280;2914;42.668;23.346;2023-02-11T05:32:26;96085.41;;;-1.47;63.42
5777;BME280;2914;42.668;23.346;2023-02-11T05:34:55;96090.27;;;-1.53;63.78
5777;BME280;2914;42.668;23.346;2023-02-11T05:37:24;96094.60;;;-1.54;63.90
5777;BME280;2914;42.668;23.346;2023-02-11T05:39:53;96081.31;;;-1.58;64.24
5777;BME280;2914;42.668;23.346;2023-02-11T05:46:50;96085.80;;;-1.24;63.82
5777;BME280;2914;42.668;23.346;2023-02-11T05:49:19;96090.02;;;-1.20;63.44
5777;BME280;2914;42.668;23.346;2023-02-11T05:51:48;96086.91;;;-1.16;62.98
5777;BME280;2914;42.668;23.346;2023-02-11T05:54:19;96093.22;;;-1.08;62.61
5777;BME280;2914;42.668;23.346;2023-02-11T05:56:48;96095.66;;;-1.02;62.54
5777;BME280;2914;42.668;23.346;2023-02-11T05:59:17;96102.02;;;-0.96;62.60
5777;BME280;2914;42.668;23.346;2023-02-11T06:01:46;96093.08;;;-0.82;62.61
5777;BME280;2914;42.668;23.346;2023-02-11T06:04:15;96096.94;;;-0.63;62.40
5777;BME280;2914;42.668;23.346;2023-02-11T06:06:44;96102.32;;;-0.36;60.87
5777;BME280;2914;42.668;23.346;2023-02-11T06:09:13;96098.22;;;-0.27;59.36
5777;BME280;2914;42.668;23.346;2023-02-11T06:15:17;96107.08;;;-0.01;58.97
5777;BME280;2914;42.668;23.346;2023-02-11T06:17:46;96105.55;;;0.08;58.28
5777;BME280;2914;42.668;23.346;2023-02-11T06:20:16;96109.62;;;0.17;57.96
5777;BME280;2914;42.668;23.346;2023-02-11T06:22:45;96108.16;;;0.23;57.31
5777;BME280;2914;42.668;23.346;2023-02-11T06:25:15;96113.23;;;0.28;57.41
5777;BME280;2914;42.668;23.346;2023-02-11T06:27:45;96106.75;;;0.28;58.01
5777;BME280;2914;42.668;23.346;2023-02-11T06:37:29;96108.84;;;1.06;56.66
5777;BME280;2914;42.668;23.346;2023-02-11T06:39:58;96106.19;;;1.23;56.04
5777;BME280;2914;42.668;23.346;2023-02-11T06:42:27;96103.94;;;1.39;54.51
5777;BME280;2914;42.668;23.346;2023-02-11T06:44:56;96102.36;;;1.48;54.40
5777;BME280;2914;42.668;23.346;2023-02-11T06:47:25;96107.83;;;1.80;54.04
5777;BME280;2914;42.668;23.346;2023-02-11T06:49:54;96111.73;;;1.94;53.09
5777;BME280;2914;42.668;23.346;2023-02-11T06:52:23;96109.14;;;2.06;52.58
5777;BME280;2914;42.668;23.346;2023-02-11T06:54:52;96108.08;;;2.11;52.03
5777;BME280;2914;42.668;23.346;2023-02-11T06:57:21;96118.78;;;2.15;51.74
5777;BME280;2914;42.668;23.346;2023-02-11T06:59:50;96120.16;;;2.39;52.30
5777;BME280;2914;42.668;23.346;2023-02-11T07:02:19;96120.53;;;2.28;51.65
5777;BME280;2914;42.668;23.346;2023-02-11T07:04:48;96122.50;;;2.33;51.42
5777;BME280;2914;42.668;23.346;2023-02-11T07:07:17;96118.94;;;2.36;50.78
5777;BME280;2914;42.668;23.346;2023-02-11T07:09:46;96109.66;;;2.29;51.55
5777;BME280;2914;42.668;23.346;2023-02-11T07:12:15;96113.73;;;2.24;51.28
5777;BME280;2914;42.668;23.346;2023-02-11T07:14:44;96115.16;;;2.33;50.99
5777;BME280;2914;42.668;23.346;2023-02-11T07:17:13;96105.43;;;2.38;51.07
5777;BME280;2914;42.668;23.346;2023-02-11T07:19:42;96111.13;;;2.24;51.26
5777;BME280;2914;42.668;23.346;2023-02-11T07:30:56;96096.20;;;3.00;50.42
5777;BME280;2914;42.668;23.346;2023-02-11T07:33:25;96088.72;;;3.03;49.87
5777;BME280;2914;42.668;23.346;2023-02-11T07:35:54;96092.08;;;3.07;49.66
5777;BME280;2914;42.668;23.346;2023-02-11T07:38:23;96082.55;;;2.94;49.91
5777;BME280;2914;42.668;23.346;2023-02-11T07:44:35;96096.10;;;2.80;50.61
5777;BME280;2914;42.668;23.346;2023-02-11T07:47:04;96082.95;;;2.59;50.46
5777;BME280;2914;42.668;23.346;2023-02-11T07:49:33;96074.63;;;2.73;50.35
5777;BME280;2914;42.668;23.346;2023-02-11T07:52:02;96076.95;;;2.81;50.20
5777;BME280;2914;42.668;23.346;2023-02-11T07:54:32;96077.41;;;2.57;50.49
5777;BME280;2914;42.668;23.346;2023-02-11T07:57:01;96080.59;;;2.53;50.98
5777;BME280;2914;42.668;23.346;2023-02-11T08:05:28;96069.05;;;3.28;49.92
5777;BME280;2914;42.668;23.346;2023-02-11T08:12:39;96068.06;;;3.85;49.09
5777;BME280;2914;42.668;23.346;2023-02-11T08:15:09;96072.16;;;3.70;48.86
5777;BME280;2914;42.668;23.346;2023-02-11T08:17:38;96070.48;;;3.80;49.08
5777;BME280;2914;42.668;23.346;2023-02-11T08:20:08;96066.12;;;3.90;48.47
5777;BME280;2914;42.668;23.346;2023-02-11T08:22:37;96060.74;;;3.63;48.37
5777;BME280;2914;42.668;23.346;2023-02-11T08:25:07;96060.74;;;3.73;48.38
5777;BME280;2914;42.668;23.346;2023-02-11T08:27:36;96063.09;;;3.59;48.45
5777;BME280;2914;42.668;23.346;2023-02-11T08:30:08;96065.42;;;3.54;48.43
5777;BME280;2914;42.668;23.346;2023-02-11T08:32:37;96060.44;;;3.81;48.62
5777;BME280;2914;42.668;23.346;2023-02-11T08:35:08;96063.66;;;3.55;48.26
5777;BME280;2914;42.668;23.346;2023-02-11T08:37:39;96063.53;;;3.26;49.60
5777;BME280;2914;42.668;23.346;2023-02-11T08:40:09;96066.15;;;3.14;49.82
5777;BME280;2914;42.668;23.346;2023-02-11T08:42:38;96064.16;;;3.20;49.74
5777;BME280;2914;42.668;23.346;2023-02-11T08:45:08;96064.22;;;3.41;49.70
5777;BME280;2914;42.668;23.346;2023-02-11T08:50:41;96061.94;;;4.07;59.35
5777;BME280;2914;42.668;23.346;2023-02-11T08:53:10;96070.88;;;4.12;50.54
5777;BME280;2914;42.668;23.346;2023-02-11T08:55:39;96065.83;;;3.66;49.78
5777;BME280;2914;42.668;23.346;2023-02-11T08:58:08;96065.80;;;3.55;50.23
5777;BME280;2914;42.668;23.346;2023-02-11T09:00:37;96067.91;;;3.58;50.42
5777;BME280;2914;42.668;23.346;2023-02-11T09:05:44;96060.98;;;3.56;50.58
5777;BME280;2914;42.668;23.346;2023-02-11T09:10:50;96061.00;;;3.77;50.18
5777;BME280;2914;42.668;23.346;2023-02-11T09:13:19;96059.44;;;3.73;50.41
5777;BME280;2914;42.668;23.346;2023-02-11T09:15:48;96058.44;;;3.65;50.08
5777;BME280;2914;42.668;23.346;2023-02-11T09:18:17;96050.00;;;3.48;50.01
5777;BME280;2914;42.668;23.346;2023-02-11T09:20:46;96053.34;;;3.62;50.51
5777;BME280;2914;42.668;23.346;2023-02-11T09:23:15;96047.20;;;3.96;59.62
5777;BME280;2914;42.668;23.346;2023-02-11T09:28:22;96045.14;;;3.82;50.44
5777;BME280;2914;42.668;23.346;2023-02-11T09:30:51;96051.88;;;3.77;49.06
5777;BME280;2914;42.668;23.346;2023-02-11T09:33:20;96043.81;;;3.61;49.47
5777;BME280;2914;42.668;23.346;2023-02-11T09:35:49;96039.53;;;3.60;49.49
5777;BME280;2914;42.668;23.346;2023-02-11T09:38:18;96041.81;;;3.68;49.48
5777;BME280;2914;42.668;23.346;2023-02-11T09:40:47;96036.85;;;3.72;49.87
5777;BME280;2914;42.668;23.346;2023-02-11T09:43:18;96036.86;;;3.93;49.56
5777;BME280;2914;42.668;23.346;2023-02-11T09:45:49;96034.18;;;3.94;48.62
5777;BME280;2914;42.668;23.346;2023-02-11T09:48:20;96031.64;;;3.62;47.76
5777;BME280;2914;42.668;23.346;2023-02-11T09:50:53;96020.91;;;3.47;47.84
5777;BME280;2914;42.668;23.346;2023-02-11T09:53:24;96021.53;;;3.32;48.15
5777;BME280;2914;42.668;23.346;2023-02-11T09:55:55;96011.59;;;3.19;48.33
5777;BME280;2914;42.668;23.346;2023-02-11T09:58:28;96011.88;;;3.01;48.55
5777;BME280;2914;42.668;23.346;2023-02-11T10:01:01;96007.16;;;2.99;49.63
5777;BME280;2914;42.668;23.346;2023-02-11T10:06:16;95991.41;;;3.25;48.70
5777;BME280;2914;42.668;23.346;2023-02-11T10:08:50;95988.66;;;3.28;48.87
5777;BME280;2914;42.668;23.346;2023-02-11T10:11:22;95979.94;;;3.29;48.86
5777;BME280;2914;42.668;23.346;2023-02-11T10:13:56;95975.42;;;3.22;48.65
5777;BME280;2914;42.668;23.346;2023-02-11T10:19:23;95965.16;;;3.07;48.94
5777;BME280;2914;42.668;23.346;2023-02-11T10:24:35;95954.53;;;2.79;48.17
5777;BME280;2914;42.668;23.346;2023-02-11T10:27:11;95945.22;;;2.84;48.72
5777;BME280;2914;42.668;23.346;2023-02-11T10:29:44;95944.53;;;2.68;48.17
5777;BME280;2914;42.668;23.346;2023-02-11T10:32:19;95933.48;;;2.74;47.45
5777;BME280;2914;42.668;23.346;2023-02-11T10:34:47;95927.05;;;2.82;47.20
5777;BME280;2914;42.668;23.346;2023-02-11T10:37:16;95916.61;;;2.72;47.54
5777;BME280;2914;42.668;23.346;2023-02-11T10:39:46;95914.84;;;2.83;47.80
5777;BME280;2914;42.668;23.346;2023-02-11T10:42:15;95911.44;;;2.93;47.90
5777;BME280;2914;42.668;23.346;2023-02-11T10:47:38;95894.03;;;3.03;48.02
5777;BME280;2914;42.668;23.346;2023-02-11T10:50:20;95888.12;;;3.00;47.14
5777;BME280;2914;42.668;23.346;2023-02-11T10:52:49;95888.89;;;2.92;47.91
5777;BME280;2914;42.668;23.346;2023-02-11T10:55:20;95882.23;;;2.84;48.34
5777;BME280;2914;42.668;23.346;2023-02-11T10:57:58;95876.76;;;2.91;47.35
5777;BME280;2914;42.668;23.346;2023-02-11T11:00:34;95881.33;;;2.96;47.51
5777;BME280;2914;42.668;23.346;2023-02-11T11:05:45;95869.22;;;3.15;47.00
5777;BME280;2914;42.668;23.346;2023-02-11T11:08:15;95861.00;;;3.14;46.28
5777;BME280;2914;42.668;23.346;2023-02-11T11:10:46;95853.37;;;3.20;47.32
5777;BME280;2914;42.668;23.346;2023-02-11T11:13:30;95857.16;;;3.33;50.26
5777;BME280;2914;42.668;23.346;2023-02-11T11:19:20;95858.39;;;3.35;47.38
5777;BME280;2914;42.668;23.346;2023-02-11T11:24:31;95847.75;;;3.50;46.98
5777;BME280;2914;42.668;23.346;2023-02-11T11:27:02;95846.19;;;3.46;46.63
5777;BME280;2914;42.668;23.346;2023-02-11T11:29:35;95845.16;;;3.29;46.80
5777;BME280;2914;42.668;23.346;2023-02-11T11:32:10;95851.59;;;3.51;47.11
5777;BME280;2914;42.668;23.346;2023-02-11T11:34:39;95847.06;;;3.65;46.21
5777;BME280;2914;42.668;23.346;2023-02-11T11:37:19;95848.18;;;3.60;46.21
5777;BME280;2914;42.668;23.346;2023-02-11T11:42:39;95838.22;;;3.59;44.88
5777;BME280;2914;42.668;23.346;2023-02-11T11:48:07;95827.70;;;3.61;45.44
5777;BME280;2914;42.668;23.346;2023-02-11T11:53:38;95825.92;;;3.42;45.45
5777;BME280;2914;42.668;23.346;2023-02-11T11:58:52;95822.96;;;3.50;45.13
5777;BME280;2914;42.668;23.346;2023-02-11T12:07:09;95802.02;;;3.51;44.76
5777;BME280;2914;42.668;23.346;2023-02-11T12:09:42;95798.65;;;3.49;45.73
5777;BME280;2914;42.668;23.346;2023-02-11T12:15:01;95777.97;;;3.74;46.44
5777;BME280;2914;42.668;23.346;2023-02-11T12:20:30;95779.77;;;3.82;45.71
5777;BME280;2914;42.668;23.346;2023-02-11T12:25:42;95763.21;;;3.92;45.63
5777;BME280;2914;42.668;23.346;2023-02-11T12:28:22;95763.31;;;3.80;45.88
5777;BME280;2914;42.668;23.346;2023-02-11T12:30:59;95758.22;;;3.87;44.92
5777;BME280;2914;42.668;23.346;2023-02-11T12:36:21;95754.78;;;3.96;43.71
5777;BME280;2914;42.668;23.346;2023-02-11T12:38:57;95753.16;;;3.93;43.29
5777;BME280;2914;42.668;23.346;2023-02-11T12:41:33;95749.32;;;3.92;43.02
5777;BME280;2914;42.668;23.346;2023-02-11T12:47:05;95743.64;;;4.01;43.91
5777;BME280;2914;42.668;23.346;2023-02-11T12:49:48;95737.42;;;3.95;43.36
5777;BME280;2914;42.668;23.346;2023-02-11T12:52:26;95734.02;;;3.93;43.50
5777;BME280;2914;42.668;23.346;2023-02-11T12:54:57;95734.14;;;4.00;42.83
5777;BME280;2914;42.668;23.346;2023-02-11T12:57:29;95735.45;;;4.00;42.92
5777;BME280;2914;42.668;23.346;2023-02-11T13:05:22;95720.30;;;4.06;43.43
5777;BME280;2914;42.668;23.346;2023-02-11T13:13:15;95717.73;;;4.15;43.67
5777;BME280;2914;42.668;23.346;2023-02-11T13:18:28;95713.54;;;4.02;44.11
5777;BME280;2914;42.668;23.346;2023-02-11T13:23:49;95707.41;;;4.03;43.44
5777;BME280;2914;42.668;23.346;2023-02-11T13:29:08;95702.81;;;4.00;42.70
5777;BME280;2914;42.668;23.346;2023-02-11T13:34:52;95704.00;;;3.93;42.55
5777;BME280;2914;42.668;23.346;2023-02-11T13:39:42;95699.97;;;4.04;43.23
5777;BME280;2914;42.668;23.346;2023-02-11T13:44:58;95696.64;;;3.92;41.87
5777;BME280;2914;42.668;23.346;2023-02-11T13:47:30;95697.23;;;3.88;41.91
5777;BME280;2914;42.668;23.346;2023-02-11T13:50:03;95691.97;;;3.99;42.06
5777;BME280;2914;42.668;23.346;2023-02-11T13:52:34;95688.45;;;4.00;42.53
5777;BME280;2914;42.668;23.346;2023-02-11T13:55:08;95678.44;;;3.90;40.92
5777;BME280;2914;42.668;23.346;2023-02-11T14:00:54;95677.22;;;3.98;39.22
5777;BME280;2914;42.668;23.346;2023-02-11T14:06:19;95649.76;;;5.67;100.00
5777;BME280;2914;42.668;23.346;2023-02-11T14:12:30;95655.09;;;5.24;42.45
5777;BME280;2914;42.668;23.346;2023-02-11T14:17:37;95648.48;;;5.01;46.24
5777;BME280;2914;42.668;23.346;2023-02-11T14:22:57;95638.89;;;4.59;40.45
5777;BME280;2914;42.668;23.346;2023-02-11T14:25:27;95647.73;;;4.39;41.05
5777;BME280;2914;42.668;23.346;2023-02-11T14:31:26;95641.99;;;4.15;42.25
5777;BME280;2914;42.668;23.346;2023-02-11T14:34:04;95641.84;;;4.10;42.29
5777;BME280;2914;42.668;23.346;2023-02-11T14:42:35;95633.84;;;4.13;42.90
5777;BME280;2914;42.668;23.346;2023-02-11T14:47:49;95632.91;;;4.05;43.40
5777;BME280;2914;42.668;23.346;2023-02-11T14:50:23;95637.90;;;4.01;43.85
5777;BME280;2914;42.668;23.346;2023-02-11T14:55:45;95642.44;;;4.06;43.93
5777;BME280;2914;42.668;23.346;2023-02-11T15:01:02;95645.97;;;4.05;43.84
5777;BME280;2914;42.668;23.346;2023-02-11T15:06:31;95641.77;;;4.11;43.63
5777;BME280;2914;42.668;23.346;2023-02-11T15:11:44;95631.55;;;4.15;43.57
5777;BME280;2914;42.668;23.346;2023-02-11T15:19:51;95631.84;;;4.09;43.71
5777;BME280;2914;42.668;23.346;2023-02-11T15:25:07;95620.41;;;4.03;43.55
5777;BME280;2914;42.668;23.346;2023-02-11T15:30:33;95614.17;;;3.97;43.56
5777;BME280;2914;42.668;23.346;2023-02-11T15:35:41;95612.79;;;3.89;43.98
5777;BME280;2914;42.668;23.346;2023-02-11T15:38:11;95617.46;;;3.83;44.22
5777;BME280;2914;42.668;23.346;2023-02-11T15:40:49;95610.78;;;3.68;44.76
5777;BME280;2914;42.668;23.346;2023-02-11T15:43:11;95610.15;;;3.63;45.12
5777;BME280;2914;42.668;23.346;2023-02-11T15:48:37;95604.30;;;3.58;45.75
5777;BME280;2914;42.668;23.346;2023-02-11T15:53:51;95607.66;;;3.51;46.15
5777;BME280;2914;42.668;23.346;2023-02-11T15:56:24;95613.70;;;3.43;46.13
5777;BME280;2914;42.668;23.346;2023-02-11T16:01:41;95608.24;;;3.39;46.56
5777;BME280;2914;42.668;23.346;2023-02-11T16:04:17;95613.61;;;3.36;46.59
5777;BME280;2914;42.668;23.346;2023-02-11T16:06:47;95618.09;;;3.23;46.64
5777;BME280;2914;42.668;23.346;2023-02-11T16:09:29;95619.80;;;3.25;46.96
5777;BME280;2914;42.668;23.346;2023-02-11T16:11:58;95617.36;;;3.11;47.31
5777;BME280;2914;42.668;23.346;2023-02-11T16:14:32;95616.40;;;3.03;47.51
5777;BME280;2914;42.668;23.346;2023-02-11T16:17:06;95618.27;;;3.10;47.46
5777;BME280;2914;42.668;23.346;2023-02-11T16:19:41;95612.08;;;3.13;47.73
5777;BME280;2914;42.668;23.346;2023-02-11T16:22:14;95611.58;;;3.04;47.94
5777;BME280;2914;42.668;23.346;2023-02-11T16:24:46;95608.73;;;3.00;48.11
5777;BME280;2914;42.668;23.346;2023-02-11T16:29:58;95618.97;;;3.05;48.12
5777;BME280;2914;42.668;23.346;2023-02-11T16:32:29;95621.99;;;2.85;48.09
5777;BME280;2914;42.668;23.346;2023-02-11T16:34:58;95615.00;;;2.96;47.45
5777;BME280;2914;42.668;23.346;2023-02-11T16:37:28;95616.05;;;2.92;47.52
5777;BME280;2914;42.668;23.346;2023-02-11T16:39:58;95613.81;;;2.84;47.47
5777;BME280;2914;42.668;23.346;2023-02-11T16:42:27;95616.09;;;2.82;47.10
5777;BME280;2914;42.668;23.346;2023-02-11T16:47:30;95630.50;;;2.80;47.55
5777;BME280;2914;42.668;23.346;2023-02-11T16:52:54;95620.44;;;2.81;47.76
5777;BME280;2914;42.668;23.346;2023-02-11T16:55:23;95613.60;;;2.79;47.76
5777;BME280;2914;42.668;23.346;2023-02-11T16:57:52;95611.75;;;3.10;78.36
5777;BME280;2914;42.668;23.346;2023-02-11T17:03:09;95623.88;;;3.11;49.72
5777;BME280;2914;42.668;23.346;2023-02-11T17:08:17;95631.16;;;2.75;49.46
5777;BME280;2914;42.668;23.346;2023-02-11T17:13:30;95629.20;;;2.70;49.82
5777;BME280;2914;42.668;23.346;2023-02-11T17:18:42;95624.39;;;2.61;50.09
5777;BME280;2914;42.668;23.346;2023-02-11T17:21:12;95616.28;;;2.48;50.15
5777;BME280;2914;42.668;23.346;2023-02-11T17:23:41;95619.20;;;2.40;50.34
5777;BME280;2914;42.668;23.346;2023-02-11T17:26:12;95617.37;;;2.52;50.39
5777;BME280;2914;42.668;23.346;2023-02-11T17:28:41;95619.61;;;2.51;50.46
5777;BME280;2914;42.668;23.346;2023-02-11T17:31:15;95612.88;;;2.56;50.24
5777;BME280;2914;42.668;23.346;2023-02-11T17:37:02;95625.77;;;2.59;50.40
5777;BME280;2914;42.668;23.346;2023-02-11T17:39:33;95621.27;;;2.52;50.13
5777;BME280;2914;42.668;23.346;2023-02-11T17:44:40;95628.50;;;2.46;50.52
5777;BME280;2914;42.668;23.346;2023-02-11T17:49:48;95633.92;;;2.41;50.38
5777;BME280;2914;42.668;23.346;2023-02-11T17:52:17;95636.27;;;2.37;50.25
5777;BME280;2914;42.668;23.346;2023-02-11T17:54:48;95633.73;;;2.35;50.13
5777;BME280;2914;42.668;23.346;2023-02-11T17:57:17;95641.55;;;2.35;50.08
5777;BME280;2914;42.668;23.346;2023-02-11T18:02:24;95649.67;;;2.48;49.53
5777;BME280;2914;42.668;23.346;2023-02-11T18:07:54;95645.33;;;2.28;49.49
5777;BME280;2914;42.668;23.346;2023-02-11T18:10:23;95660.16;;;2.26;49.28
5777;BME280;2914;42.668;23.346;2023-02-11T18:12:52;95656.72;;;2.26;49.17
5777;BME280;2914;42.668;23.346;2023-02-11T18:15:23;95660.89;;;2.30;49.32
5777;BME280;2914;42.668;23.346;2023-02-11T18:17:52;95655.28;;;2.29;49.37
5777;BME280;2914;42.668;23.346;2023-02-11T18:20:21;95653.77;;;2.33;49.71
5777;BME280;2914;42.668;23.346;2023-02-11T18:22:50;95648.70;;;2.30;49.63
5777;BME280;2914;42.668;23.346;2023-02-11T18:27:57;95646.02;;;2.11;50.05
5777;BME280;2914;42.668;23.346;2023-02-11T18:30:26;95648.42;;;2.06;50.08
5777;BME280;2914;42.668;23.346;2023-02-11T18:32:56;95649.30;;;2.06;49.90
5777;BME280;2914;42.668;23.346;2023-02-11T18:37:29;95641.35;;;2.09;49.72